Evans Head, New South Wales

11:31 PM EST on August 21, 2014 (GMT +1000)
Lismore | Change Station
CLOSE
Current Station
Airport
Location: Lismore Airport, NSW,
Elevation: 33 ft
Nearby Weather Stations

Elev 33 ft 28.83 °S, 153.26 °E | Updated 31 minutes ago

Mostly Cloudy
Mostly Cloudy
55 °F
Feels Like 55 °F
N
7
Wind Variable Wind from WSW

Today
High -- | Low -- °F
--% Chance of Precip.
Yesterday
High -- | Low -- °F
Precip. -- in
6:13 AM 5:26 PM
Waning Crescent, 14% visible
Pressure 30.30 in
Visibility 6.2 miles
Clouds Scattered Clouds 3800 ft
Scattered Clouds 4300 ft
Mostly Cloudy 5900 ft
Dew Point 55 °F
Humidity 100%
Rainfall 0.00 in
Snow Depth Not available.
UV 0 out of 12
Pollen Not available.
Air Quality Not available.
Flu Activity Not available.
METAR YLIS 211300Z AUTO 25006KT 9999 // SCT038 SCT043 BKN059 13/13 Q1026

More Conditions Fewer Conditions

Pressure 30.30 in
Visibility 6.2 miles
Clouds Scattered Clouds 3800 ft
Scattered Clouds 4300 ft
Mostly Cloudy 5900 ft
Dew Point 55 °F
Humidity 100%
Rainfall 0.00 in
Snow Depth Not available.
UV 0 out of 12
Pollen Not available.
Air Quality Not available.
Flu Activity Not available.
METAR YLIS 211300Z AUTO 25006KT 9999 // SCT038 SCT043 BKN059 13/13 Q1026

More Conditions Fewer Conditions

10-Day Weather Forecast

Almanac

Astronomy

Aug. 21, 2014 Rise Set
Actual Time 6:13 AM EST 5:26 PM EST
Civil Twilight 5:49 AM EST 5:50 PM EST
Nautical Twilight 5:21 AM EST 6:18 PM EST
Astronomical Twilight 4:54 AM EST 6:45 PM EST
Moon 2:51 AM EST 1:46 PM EST
Length of Visible Light 12h 00m
Length of Day
11h 12m
Tomorrow will be 1m 33s longer.
Waning Crescent, 14% of the Moon is Illuminated
Today
Waning Crescent
Aug 25
New
Sep 2
First Quarter
Sep 8
Full
Sep 15
Last Quarter

Yesterday's Extremes

Country Highs Country Lows

Community

WunderPhotos

Upload Photos

1,745,918 photos uploaded!

WunderBlogs® & News

Nearby

Snow Depth

Not available.

Earthquake Activity

City Distance Mag. Time & Date
No recent earthquake activity has been reported nearby.
Minimum magnitude displayed is 2.5.

Coastal Water Temperatures

Place Temperature
No Stations Reporting

Nearby Weather Stations